createdAt,value
2022-12-09T00:01:16.899Z,9.47
2022-12-09T00:03:23.409Z,9.30
2022-12-09T00:05:27.574Z,9.87
2022-12-09T00:07:29.502Z,9.87
2022-12-09T00:09:34.676Z,9.97
2022-12-09T00:11:36.568Z,9.40
2022-12-09T00:13:38.487Z,9.13
2022-12-09T00:15:43.949Z,9.17
2022-12-09T00:17:45.753Z,9.33
2022-12-09T00:19:47.491Z,8.83
2022-12-09T00:21:49.238Z,9.23
2022-12-09T00:23:52.600Z,9.10
2022-12-09T00:25:58.054Z,9.70
2022-12-09T00:28:00.149Z,9.80
2022-12-09T00:30:02.088Z,9.20
2022-12-09T00:32:04.209Z,9.93
2022-12-09T00:34:08.935Z,10.00
2022-12-09T00:36:15.079Z,10.53
2022-12-09T00:38:16.773Z,9.93
2022-12-09T00:40:19.396Z,11.20
2022-12-09T00:42:21.212Z,10.40
2022-12-09T00:44:25.157Z,10.60
2022-12-09T00:46:29.603Z,10.53
2022-12-09T00:48:34.298Z,10.50
2022-12-09T00:50:36.048Z,10.80
2022-12-09T00:52:37.795Z,11.47
2022-12-09T00:54:42.372Z,11.13
2022-12-09T00:56:44.085Z,11.23
2022-12-09T00:58:48.315Z,11.63
2022-12-09T01:00:53.641Z,11.37
2022-12-09T01:02:55.529Z,10.97
2022-12-09T01:04:57.801Z,11.03
2022-12-09T01:07:02.596Z,10.87
2022-12-09T01:09:04.652Z,11.47
2022-12-09T01:11:12.024Z,11.23
2022-12-09T01:13:15.423Z,11.57
2022-12-09T01:15:17.067Z,11.60
2022-12-09T01:17:18.828Z,11.13
2022-12-09T01:19:20.800Z,11.23
2022-12-09T01:21:24.459Z,12.33
2022-12-09T01:23:26.354Z,11.17
2022-12-09T01:25:28.344Z,11.50
2022-12-09T01:27:31.702Z,11.40
2022-12-09T01:29:33.516Z,11.67
2022-12-09T01:31:37.743Z,11.20
2022-12-09T01:33:40.864Z,9.47
2022-12-09T01:35:42.660Z,10.93
2022-12-09T01:37:44.463Z,10.80
2022-12-09T01:39:46.232Z,10.33
2022-12-09T01:41:51.177Z,10.23
2022-12-09T01:44:17.581Z,10.50
2022-12-09T01:46:19.728Z,10.50
2022-12-09T01:48:26.815Z,10.90
2022-12-09T01:50:29.385Z,11.20
2022-12-09T01:52:31.166Z,10.37
2022-12-09T01:54:35.314Z,11.07
2022-12-09T01:56:42.989Z,12.13
2022-12-09T01:58:46.200Z,12.20
2022-12-09T02:00:48.305Z,12.10
2022-12-09T02:02:51.504Z,13.10
2022-12-09T02:04:55.229Z,11.10
2022-12-09T02:07:00.151Z,12.03
2022-12-09T02:09:02.286Z,11.90
2022-12-09T02:11:28.386Z,11.53
2022-12-09T02:13:44.532Z,11.50
2022-12-09T02:16:10.386Z,11.43
2022-12-09T02:18:26.999Z,11.57
2022-12-09T02:20:49.645Z,12.17
2022-12-09T02:23:03.572Z,11.27
2022-12-09T02:25:29.722Z,11.13
2022-12-09T02:27:43.271Z,11.50
2022-12-09T02:29:48.374Z,11.97
2022-12-09T02:32:02.056Z,11.80
2022-12-09T02:34:23.303Z,11.47
2022-12-09T02:36:36.294Z,11.27
2022-12-09T02:38:42.004Z,11.77
2022-12-09T02:41:00.204Z,11.87
2022-12-09T02:43:05.484Z,11.60
2022-12-09T02:45:10.560Z,11.60
2022-12-09T02:47:23.759Z,11.77
2022-12-09T02:49:28.217Z,12.80
2022-12-09T02:51:33.793Z,11.53
2022-12-09T02:53:40.186Z,11.43
2022-12-09T02:55:45.094Z,11.90
2022-12-09T02:57:50.574Z,11.53
2022-12-09T02:59:52.475Z,11.73
2022-12-09T03:02:27.260Z,12.10
2022-12-09T03:04:34.088Z,11.63
2022-12-09T03:06:42.606Z,12.20
2022-12-09T03:09:13.781Z,12.77
2022-12-09T03:11:18.747Z,12.67
2022-12-09T03:13:51.819Z,12.13
2022-12-09T03:16:05.350Z,11.70
2022-12-09T03:18:11.794Z,13.03
2022-12-09T03:20:22.627Z,11.83
2022-12-09T03:22:28.720Z,12.47
2022-12-09T03:24:53.879Z,12.90
2022-12-09T03:26:58.152Z,11.87
2022-12-09T03:29:03.252Z,12.47
2022-12-09T03:31:09.154Z,12.23
2022-12-09T03:33:16.544Z,11.90
2022-12-09T03:35:26.623Z,12.00
2022-12-09T03:37:30.467Z,11.67
2022-12-09T03:39:37.558Z,12.67
2022-12-09T03:41:46.925Z,12.37
2022-12-09T03:44:20.796Z,12.13
2022-12-09T03:46:23.190Z,10.73
2022-12-09T03:48:25.784Z,11.63
2022-12-09T03:50:32.115Z,11.67
2022-12-09T03:52:54.672Z,11.77
2022-12-09T03:55:13.908Z,11.77
2022-12-09T03:57:19.227Z,11.60
2022-12-09T03:59:23.269Z,11.43
2022-12-09T04:01:28.770Z,12.43
2022-12-09T04:03:32.835Z,11.70
2022-12-09T04:05:35.226Z,12.27
2022-12-09T04:07:37.152Z,11.97
2022-12-09T04:09:42.109Z,11.40
2022-12-09T04:11:44.100Z,12.00
2022-12-09T04:13:49.435Z,11.60
2022-12-09T04:15:52.408Z,12.30
2022-12-09T04:17:54.120Z,11.60
2022-12-09T04:19:55.840Z,11.37
2022-12-09T04:21:57.594Z,12.10
2022-12-09T04:24:01.443Z,11.33
2022-12-09T04:26:04.320Z,11.83
2022-12-09T04:28:06.023Z,11.23
2022-12-09T04:30:08.968Z,12.10
2022-12-09T04:32:11.178Z,10.80
2022-12-09T04:34:15.485Z,10.53
2022-12-09T04:36:20.351Z,11.13
2022-12-09T04:38:22.034Z,10.67
2022-12-09T04:40:24.801Z,10.93
2022-12-09T04:42:28.591Z,11.47
2022-12-09T04:44:30.342Z,10.60
2022-12-09T04:46:32.351Z,11.70
2022-12-09T04:48:35.569Z,10.87
2022-12-09T04:50:41.199Z,10.40
2022-12-09T04:52:43.234Z,10.67
2022-12-09T04:54:44.926Z,10.80
2022-12-09T04:56:49.542Z,10.73
2022-12-09T04:58:51.872Z,10.73
2022-12-09T05:00:53.846Z,11.50
2022-12-09T05:02:58.125Z,11.87
2022-12-09T05:05:04.897Z,11.27
2022-12-09T05:07:11.849Z,11.07
2022-12-09T05:09:14.474Z,11.87
2022-12-09T05:11:19.897Z,11.57
2022-12-09T05:13:22.545Z,11.97
2022-12-09T05:15:26.578Z,11.27
2022-12-09T05:17:29.033Z,11.30
2022-12-09T05:19:30.906Z,11.23
2022-12-09T05:21:33.019Z,11.40
2022-12-09T05:23:35.662Z,11.10
2022-12-09T05:25:39.982Z,10.67
2022-12-09T05:27:41.755Z,11.67
2022-12-09T05:29:43.752Z,11.30
2022-12-09T05:31:46.027Z,10.93
2022-12-09T05:33:49.159Z,10.27
2022-12-09T05:35:53.482Z,10.37
2022-12-09T05:37:56.034Z,10.43
2022-12-09T05:39:58.200Z,10.10
2022-12-09T05:41:59.989Z,10.53
2022-12-09T05:44:02.204Z,10.00
2022-12-09T05:46:06.727Z,10.00
2022-12-09T05:48:12.489Z,9.50
2022-12-09T05:50:15.012Z,9.93
2022-12-09T05:52:17.330Z,10.10
2022-12-09T05:54:19.476Z,11.33
2022-12-09T05:56:24.330Z,11.00
2022-12-09T05:58:27.791Z,10.83
2022-12-09T06:00:29.763Z,10.47
2022-12-09T06:02:32.080Z,11.27
2022-12-09T06:04:35.939Z,10.37
2022-12-09T06:06:38.030Z,10.77
2022-12-09T06:08:41.091Z,11.30
2022-12-09T06:10:43.361Z,11.90
2022-12-09T06:12:47.354Z,11.90
2022-12-09T06:14:49.318Z,11.27
2022-12-09T06:16:53.876Z,11.97
2022-12-09T06:18:56.178Z,12.53
2022-12-09T06:21:00.294Z,13.03
2022-12-09T06:23:02.459Z,12.67
2022-12-09T06:25:04.816Z,12.40
2022-12-09T06:27:11.699Z,11.53
2022-12-09T06:29:13.958Z,11.10
2022-12-09T06:31:16.421Z,11.50
2022-12-09T06:33:52.592Z,11.77
2022-12-09T06:35:40.398Z,11.87
2022-12-09T06:37:42.983Z,11.73
2022-12-09T06:39:44.925Z,12.03
2022-12-09T06:41:46.875Z,11.43
2022-12-09T06:43:49.504Z,11.37
2022-12-09T06:45:51.936Z,13.10
2022-12-09T06:47:53.700Z,12.27
2022-12-09T06:50:02.559Z,11.77
2022-12-09T06:52:08.098Z,11.70
2022-12-09T06:54:13.397Z,11.57
2022-12-09T06:56:18.498Z,11.87
2022-12-09T06:58:20.444Z,12.37
2022-12-09T07:00:22.653Z,11.83
2022-12-09T07:02:24.747Z,12.10
2022-12-09T07:04:29.414Z,11.90
2022-12-09T07:06:40.250Z,12.77
2022-12-09T07:08:42.575Z,12.40
2022-12-09T07:10:48.153Z,12.57
2022-12-09T07:12:56.064Z,12.73
2022-12-09T07:14:58.222Z,11.93
2022-12-09T07:17:03.859Z,12.87
2022-12-09T07:19:10.561Z,12.50
2022-12-09T07:21:15.838Z,12.43
2022-12-09T07:23:17.816Z,14.33
2022-12-09T07:25:22.192Z,14.67
2022-12-09T07:27:23.959Z,13.57
2022-12-09T07:29:27.117Z,13.27
2022-12-09T07:31:30.983Z,13.20
2022-12-09T07:33:35.210Z,12.97
2022-12-09T07:35:37.099Z,12.97
2022-12-09T07:37:39.292Z,32.03
2022-12-09T07:39:41.289Z,23.60
2022-12-09T07:41:46.114Z,17.37
2022-12-09T07:43:48.155Z,14.10
2022-12-09T07:45:50.787Z,12.83
2022-12-09T07:47:55.374Z,12.13
2022-12-09T07:50:01.450Z,11.90
2022-12-09T07:52:08.349Z,12.07
2022-12-09T07:54:15.264Z,11.50
2022-12-09T07:56:18.611Z,11.67
2022-12-09T07:58:22.233Z,10.57
2022-12-09T08:00:25.168Z,11.33
2022-12-09T08:02:26.997Z,10.77
2022-12-09T08:04:29.332Z,11.43
2022-12-09T08:06:32.467Z,11.37
2022-12-09T08:08:35.069Z,10.57
2022-12-09T08:10:37.682Z,10.67
2022-12-09T08:12:40.690Z,10.37
2022-12-09T08:14:42.782Z,10.30
2022-12-09T08:16:44.959Z,11.27
2022-12-09T08:18:48.018Z,10.47
2022-12-09T08:20:50.271Z,10.37
2022-12-09T08:22:52.409Z,10.70
2022-12-09T08:24:54.521Z,10.47
2022-12-09T08:26:57.349Z,10.67
2022-12-09T08:28:59.870Z,9.43
2022-12-09T08:31:10.714Z,10.60
2022-12-09T08:33:13.152Z,10.10
2022-12-09T08:35:15.240Z,9.97
2022-12-09T08:37:17.076Z,9.97
2022-12-09T08:39:18.983Z,10.37
2022-12-09T08:41:22.969Z,10.37
2022-12-09T08:43:29.591Z,10.40
2022-12-09T08:45:39.886Z,10.60
2022-12-09T08:47:42.779Z,10.10
2022-12-09T08:49:44.682Z,10.73
2022-12-09T08:51:48.588Z,10.43
2022-12-09T08:53:50.607Z,10.70
2022-12-09T08:55:52.724Z,10.67
2022-12-09T08:57:54.692Z,10.07
2022-12-09T08:59:56.496Z,10.40
2022-12-09T09:01:58.588Z,9.93
2022-12-09T09:04:07.603Z,9.43
2022-12-09T09:06:11.069Z,9.87
2022-12-09T09:08:13.398Z,9.90
2022-12-09T09:10:18.327Z,10.20
2022-12-09T09:12:20.330Z,10.77
2022-12-09T09:14:22.918Z,9.83
2022-12-09T09:16:27.539Z,9.53
2022-12-09T09:18:30.149Z,10.43
2022-12-09T09:20:32.183Z,10.13
2022-12-09T09:22:34.725Z,8.97
2022-12-09T09:24:38.420Z,9.80
2022-12-09T09:26:42.624Z,8.93
2022-12-09T09:28:45.351Z,8.90
2022-12-09T09:30:50.460Z,8.67
2022-12-09T09:32:52.785Z,8.90
2022-12-09T09:34:54.662Z,8.97
2022-12-09T09:36:57.628Z,8.83
2022-12-09T09:39:00.266Z,8.50
2022-12-09T09:41:07.610Z,8.47
2022-12-09T09:43:16.251Z,8.73
2022-12-09T09:45:21.332Z,8.57
2022-12-09T09:47:43.339Z,8.90
2022-12-09T09:50:05.109Z,8.80
2022-12-09T09:52:19.771Z,8.50
2022-12-09T09:54:22.042Z,8.00
2022-12-09T09:56:24.066Z,8.60
2022-12-09T09:58:36.718Z,7.97
2022-12-09T10:00:54.116Z,8.47
2022-12-09T10:03:03.019Z,7.87
2022-12-09T10:05:27.420Z,7.57
2022-12-09T10:07:33.795Z,8.17
2022-12-09T10:10:16.852Z,8.67
2022-12-09T10:12:39.669Z,8.37
2022-12-09T10:14:59.977Z,7.97
2022-12-09T10:17:36.168Z,7.63
2022-12-09T10:19:45.375Z,8.03
2022-12-09T10:21:51.336Z,8.30
2022-12-09T10:23:55.588Z,7.87
2022-12-09T10:26:02.129Z,7.50
2022-12-09T10:28:23.928Z,7.33
2022-12-09T10:30:41.710Z,8.17
2022-12-09T10:32:46.064Z,8.97
2022-12-09T10:34:51.641Z,10.13
2022-12-09T10:36:54.647Z,8.73
2022-12-09T10:38:56.837Z,8.40
2022-12-09T10:41:11.787Z,8.13
2022-12-09T10:43:44.178Z,8.10
2022-12-09T10:48:34.376Z,7.73
2022-12-09T10:50:40.400Z,7.23
2022-12-09T10:52:45.376Z,6.60
2022-12-09T10:54:48.340Z,7.33
2022-12-09T10:57:06.621Z,7.50
2022-12-09T10:59:27.250Z,8.20
2022-12-09T11:01:32.273Z,8.10
2022-12-09T11:03:53.614Z,7.30
2022-12-09T11:06:12.216Z,6.80
2022-12-09T11:08:23.123Z,6.10
2022-12-09T11:10:28.119Z,5.90
2022-12-09T11:12:40.122Z,7.30
2022-12-09T11:14:55.660Z,5.90
2022-12-09T11:17:18.701Z,5.73
2022-12-09T11:19:38.967Z,6.00
2022-12-09T11:21:42.215Z,6.03
2022-12-09T11:24:00.777Z,6.63
2022-12-09T11:26:07.693Z,6.27
2022-12-09T11:28:15.754Z,6.13
2022-12-09T11:30:23.526Z,7.20
2022-12-09T11:32:25.604Z,5.80
2022-12-09T11:34:30.794Z,6.10
2022-12-09T11:36:40.680Z,6.30
2022-12-09T11:38:48.547Z,7.00
2022-12-09T11:41:11.103Z,6.60
2022-12-09T11:43:13.050Z,7.40
2022-12-09T11:45:27.699Z,7.37
2022-12-09T11:47:50.467Z,7.17
2022-12-09T11:50:07.702Z,7.30
2022-12-09T11:52:18.596Z,6.90
2022-12-09T11:54:27.295Z,7.53
2022-12-09T11:56:32.532Z,7.00
2022-12-09T11:58:46.608Z,7.43
2022-12-09T12:01:01.031Z,6.77
2022-12-09T12:03:24.000Z,6.73
2022-12-09T12:05:34.091Z,7.50
2022-12-09T12:07:44.390Z,6.47
2022-12-09T12:09:57.432Z,6.30
2022-12-09T12:12:12.148Z,6.37
2022-12-09T12:14:22.756Z,5.73
2022-12-09T12:16:46.083Z,5.53
2022-12-09T12:19:01.519Z,5.80
2022-12-09T12:21:25.865Z,5.23
2022-12-09T12:23:30.425Z,5.13
2022-12-09T12:26:00.980Z,5.03
2022-12-09T12:28:31.451Z,5.13
2022-12-09T12:30:49.806Z,4.60
2022-12-09T12:33:40.711Z,4.67
2022-12-09T12:35:47.892Z,5.23
2022-12-09T12:37:57.667Z,5.00
2022-12-09T12:40:14.716Z,5.27
2022-12-09T12:42:31.219Z,4.83
2022-12-09T12:45:15.921Z,5.30
2022-12-09T12:47:32.928Z,5.80
2022-12-09T12:50:02.672Z,6.03
2022-12-09T12:52:54.869Z,5.20
2022-12-09T12:55:17.387Z,5.67
2022-12-09T12:57:49.773Z,5.70
2022-12-09T13:00:08.910Z,5.30
2022-12-09T13:02:28.654Z,5.63
2022-12-09T13:05:03.597Z,5.10
2022-12-09T13:07:23.773Z,4.87
2022-12-09T13:09:36.336Z,5.40
2022-12-09T13:11:52.380Z,5.20
2022-12-09T13:14:06.476Z,4.97
2022-12-09T13:16:31.312Z,5.33
2022-12-09T13:18:38.703Z,5.70
2022-12-09T13:20:52.307Z,5.50
2022-12-09T13:23:05.245Z,4.97
2022-12-09T13:25:24.321Z,5.17
2022-12-09T13:27:44.806Z,4.80
2022-12-09T13:30:03.161Z,5.27
2022-12-09T13:32:19.436Z,4.47
2022-12-09T13:34:38.315Z,5.10
2022-12-09T13:36:48.386Z,5.10
2022-12-09T13:38:51.681Z,5.03
2022-12-09T13:40:53.580Z,5.13
2022-12-09T13:43:03.980Z,4.97
2022-12-09T13:45:15.440Z,5.20
2022-12-09T13:47:33.263Z,4.87
2022-12-09T13:49:38.833Z,4.90
2022-12-09T13:51:51.489Z,5.00
2022-12-09T13:53:59.177Z,5.00
2022-12-09T13:56:08.727Z,5.30
2022-12-09T13:58:38.281Z,5.63
2022-12-09T14:01:04.176Z,5.60
2022-12-09T14:03:40.208Z,5.83
2022-12-09T14:05:42.000Z,6.10
2022-12-09T14:07:50.954Z,5.53
2022-12-09T14:09:58.158Z,5.93
2022-12-09T14:12:02.505Z,6.50
2022-12-09T14:14:22.941Z,6.10
2022-12-09T14:16:30.431Z,6.20
2022-12-09T14:18:33.267Z,6.50
2022-12-09T14:20:38.388Z,6.40
2022-12-09T14:22:40.472Z,6.87
2022-12-09T14:24:51.857Z,6.57
2022-12-09T14:26:53.435Z,6.67
2022-12-09T14:28:58.327Z,6.63
2022-12-09T14:31:06.614Z,6.60
2022-12-09T14:33:21.159Z,6.00
2022-12-09T14:35:38.566Z,5.80
2022-12-09T14:38:08.320Z,6.50
2022-12-09T14:40:15.155Z,5.97
2022-12-09T14:42:32.972Z,6.40
2022-12-09T14:44:48.932Z,5.90
2022-12-09T14:46:54.355Z,6.70
2022-12-09T14:49:02.903Z,6.33
2022-12-09T14:51:25.034Z,6.03
2022-12-09T14:53:26.800Z,6.33
2022-12-09T14:55:38.344Z,6.47
2022-12-09T14:57:44.750Z,7.10
2022-12-09T14:59:52.975Z,6.80
2022-12-09T15:02:08.022Z,6.23
2022-12-09T15:04:27.367Z,6.50
2022-12-09T15:06:31.326Z,6.77
2022-12-09T15:08:35.723Z,6.73
2022-12-09T15:10:40.648Z,6.93
2022-12-09T15:12:46.745Z,6.63
2022-12-09T15:14:54.482Z,7.20
2022-12-09T15:16:57.601Z,6.47
2022-12-09T15:18:59.285Z,6.47
2022-12-09T15:21:01.562Z,6.67
2022-12-09T15:23:05.165Z,6.00
2022-12-09T15:25:20.043Z,6.17
2022-12-09T15:27:25.181Z,6.57
2022-12-09T15:29:35.442Z,7.97
2022-12-09T15:31:48.784Z,7.23
2022-12-09T15:33:57.401Z,6.87
2022-12-09T15:36:07.452Z,5.90
2022-12-09T15:38:10.105Z,6.60
2022-12-09T15:40:15.711Z,6.60
2022-12-09T15:42:25.828Z,6.27
2022-12-09T15:44:33.379Z,5.90
2022-12-09T15:46:37.924Z,6.20
2022-12-09T15:48:46.825Z,6.67
2022-12-09T15:50:56.624Z,7.57
2022-12-09T15:53:12.558Z,5.70
2022-12-09T15:55:24.628Z,6.40
2022-12-09T15:57:28.539Z,6.20
2022-12-09T15:59:36.924Z,6.10
2022-12-09T16:01:38.840Z,6.10
2022-12-09T16:03:48.388Z,6.27
2022-12-09T16:05:56.458Z,6.40
2022-12-09T16:08:01.340Z,6.50
2022-12-09T16:10:29.503Z,6.30
2022-12-09T16:12:35.282Z,6.43
2022-12-09T16:14:44.551Z,6.50
2022-12-09T16:16:50.621Z,6.30
2022-12-09T16:18:52.239Z,7.00
2022-12-09T16:21:24.836Z,6.60
2022-12-09T16:23:27.293Z,6.20
2022-12-09T16:25:35.493Z,6.63
2022-12-09T16:27:42.576Z,6.57
2022-12-09T16:29:52.774Z,6.00
2022-12-09T16:32:18.975Z,5.97
2022-12-09T16:34:21.979Z,6.63
2022-12-09T16:36:35.149Z,6.13
2022-12-09T16:38:37.419Z,5.97
2022-12-09T16:40:48.711Z,6.00
2022-12-09T16:42:55.507Z,7.20
2022-12-09T16:45:31.760Z,7.83
2022-12-09T16:47:36.049Z,7.10
2022-12-09T16:49:46.932Z,6.90
2022-12-09T16:51:48.592Z,7.30
2022-12-09T16:53:53.507Z,7.70
2022-12-09T16:55:59.659Z,7.60
2022-12-09T16:58:03.594Z,8.57
2022-12-09T17:00:05.775Z,7.33
2022-12-09T17:02:33.915Z,7.83
2022-12-09T17:04:35.709Z,7.23
2022-12-09T17:06:39.843Z,7.10
2022-12-09T17:08:42.051Z,7.03
2022-12-09T17:10:43.840Z,6.70
2022-12-09T17:12:45.710Z,6.57
2022-12-09T17:14:53.051Z,6.37
2022-12-09T17:16:54.780Z,6.13
2022-12-09T17:18:56.908Z,6.13
2022-12-09T17:21:10.813Z,6.80
2022-12-09T17:23:12.633Z,7.03
2022-12-09T17:25:14.602Z,6.53
2022-12-09T17:27:16.283Z,7.07
2022-12-09T17:29:25.189Z,6.60
2022-12-09T17:31:29.115Z,7.10
2022-12-09T17:33:30.779Z,7.60
2022-12-09T17:35:37.877Z,8.37
2022-12-09T17:37:42.584Z,8.40
2022-12-09T17:39:44.314Z,7.93
2022-12-09T17:41:46.168Z,7.47
2022-12-09T17:43:47.925Z,7.57
2022-12-09T17:45:52.378Z,8.13
2022-12-09T17:47:54.733Z,8.13
2022-12-09T17:49:56.421Z,8.00
2022-12-09T17:51:58.180Z,7.93
2022-12-09T17:53:59.934Z,8.43
2022-12-09T17:56:06.342Z,8.77
2022-12-09T17:58:07.956Z,7.90
2022-12-09T18:00:10.964Z,8.67
2022-12-09T18:02:15.474Z,9.20
2022-12-09T18:04:17.311Z,8.00
2022-12-09T18:06:18.940Z,7.93
2022-12-09T18:08:20.602Z,8.77
2022-12-09T18:10:23.245Z,8.07
2022-12-09T18:12:25.052Z,7.80
2022-12-09T18:14:26.723Z,8.27
2022-12-09T18:16:28.746Z,7.60
2022-12-09T18:18:30.459Z,8.53
2022-12-09T18:20:37.820Z,8.50
2022-12-09T18:22:42.155Z,8.27
2022-12-09T18:24:43.841Z,9.00
2022-12-09T18:26:45.680Z,7.87
2022-12-09T18:28:47.341Z,8.17
2022-12-09T18:30:49.047Z,8.60
2022-12-09T18:32:51.156Z,7.43
2022-12-09T18:34:57.254Z,8.63
2022-12-09T18:37:01.300Z,7.77
2022-12-09T18:39:06.434Z,7.83
2022-12-09T18:41:12.525Z,8.10
2022-12-09T18:43:14.148Z,8.73
2022-12-09T18:45:16.315Z,7.90
2022-12-09T18:47:18.019Z,7.13
2022-12-09T18:49:22.167Z,8.47
2022-12-09T18:51:23.973Z,8.37
2022-12-09T18:53:25.906Z,7.90
2022-12-09T18:55:27.583Z,8.53
2022-12-09T18:57:31.004Z,8.60
2022-12-09T18:59:32.945Z,8.53
2022-12-09T19:01:38.923Z,9.07
2022-12-09T19:03:41.200Z,8.67
2022-12-09T19:05:43.146Z,9.30
2022-12-09T19:07:44.933Z,9.57
2022-12-09T19:09:46.625Z,9.73
2022-12-09T19:11:50.178Z,9.90
2022-12-09T19:13:52.667Z,9.13
2022-12-09T19:15:54.376Z,9.00
2022-12-09T19:17:58.484Z,9.17
2022-12-09T19:20:00.197Z,8.90
2022-12-09T19:22:05.357Z,8.23
2022-12-09T19:24:10.659Z,9.27
2022-12-09T19:26:21.357Z,9.30
2022-12-09T19:28:25.407Z,9.10
2022-12-09T19:30:28.943Z,9.27
2022-12-09T19:32:52.439Z,9.17
2022-12-09T19:34:52.441Z,8.53
2022-12-09T19:36:56.578Z,8.87
2022-12-09T19:38:58.548Z,9.27
2022-12-09T19:41:03.292Z,9.53
2022-12-09T19:43:04.980Z,8.50
2022-12-09T19:45:12.091Z,9.47
2022-12-09T19:47:15.860Z,9.67
2022-12-09T19:49:21.428Z,9.53
2022-12-09T19:51:26.900Z,8.80
2022-12-09T19:53:28.655Z,9.43
2022-12-09T19:55:34.010Z,9.00
2022-12-09T19:57:35.731Z,9.37
2022-12-09T19:59:37.653Z,9.00
2022-12-09T20:01:45.798Z,9.33
2022-12-09T20:03:50.370Z,9.17
2022-12-09T20:05:54.714Z,9.70
2022-12-09T20:07:57.218Z,9.17
2022-12-09T20:09:59.002Z,9.30
2022-12-09T20:12:00.629Z,9.00
2022-12-09T20:14:04.711Z,9.90
2022-12-09T20:16:11.061Z,8.70
2022-12-09T20:18:14.289Z,9.63
2022-12-09T20:20:16.017Z,8.83
2022-12-09T20:22:20.031Z,9.50
2022-12-09T20:24:21.780Z,9.37
2022-12-09T20:26:27.201Z,8.90
2022-12-09T20:28:31.776Z,9.40
2022-12-09T20:30:33.481Z,9.47
2022-12-09T20:32:35.219Z,9.93
2022-12-09T20:34:37.140Z,9.10
2022-12-09T20:36:41.561Z,8.77
2022-12-09T20:38:43.916Z,10.07
2022-12-09T20:40:45.603Z,9.00
2022-12-09T20:42:47.344Z,9.10
2022-12-09T20:44:51.877Z,9.03
2022-12-09T20:46:53.604Z,9.03
2022-12-09T20:48:59.007Z,10.33
2022-12-09T20:51:08.303Z,10.73
2022-12-09T20:53:10.360Z,10.13
2022-12-09T20:55:12.626Z,10.20
2022-12-09T20:57:14.312Z,11.30
2022-12-09T20:59:16.316Z,9.77
2022-12-09T21:01:25.381Z,11.10
2022-12-09T21:03:29.374Z,10.60
2022-12-09T21:05:31.848Z,11.03
2022-12-09T21:07:33.692Z,11.70
2022-12-09T21:09:35.499Z,12.20
2022-12-09T21:11:37.563Z,12.20
2022-12-09T21:13:41.821Z,12.43
2022-12-09T21:15:43.463Z,11.67
2022-12-09T21:17:50.719Z,11.83
2022-12-09T21:19:52.419Z,12.70
2022-12-09T21:21:54.758Z,12.90
2022-12-09T21:23:56.741Z,13.93
2022-12-09T21:26:05.684Z,14.50
2022-12-09T21:28:07.344Z,14.37
2022-12-09T21:30:09.834Z,14.20
2022-12-09T21:32:14.025Z,13.97
2022-12-09T21:34:17.615Z,13.93
2022-12-09T21:36:22.313Z,12.67
2022-12-09T21:38:27.349Z,13.40
2022-12-09T21:40:29.301Z,13.00
2022-12-09T21:42:30.974Z,12.80
2022-12-09T21:44:32.738Z,12.97
2022-12-09T21:46:37.627Z,12.47
2022-12-09T21:48:39.811Z,13.20
2022-12-09T21:50:41.480Z,12.40
2022-12-09T21:52:46.633Z,11.33
2022-12-09T21:54:55.156Z,11.70
2022-12-09T21:56:57.152Z,12.63
2022-12-09T21:58:59.888Z,12.23
2022-12-09T22:01:09.951Z,12.27
2022-12-09T22:03:11.936Z,13.17
2022-12-09T22:05:15.888Z,12.90
2022-12-09T22:07:17.543Z,12.90
2022-12-09T22:09:22.957Z,12.73
2022-12-09T22:11:27.477Z,12.23
2022-12-09T22:13:39.037Z,12.63
2022-12-09T22:15:42.189Z,12.43
2022-12-09T22:17:43.830Z,13.47
2022-12-09T22:19:45.536Z,12.70
2022-12-09T22:21:48.251Z,12.70
2022-12-09T22:23:49.914Z,12.17
2022-12-09T22:25:51.590Z,11.90
2022-12-09T22:27:53.333Z,12.33
2022-12-09T22:29:54.980Z,13.17
2022-12-09T22:31:59.277Z,13.03
2022-12-09T22:34:04.141Z,12.77
2022-12-09T22:36:09.044Z,12.03
2022-12-09T22:38:14.278Z,12.80
2022-12-09T22:40:19.291Z,11.97
2022-12-09T22:42:21.053Z,12.07
2022-12-09T22:44:22.842Z,12.43
2022-12-09T22:46:28.203Z,13.07
2022-12-09T22:48:30.099Z,12.87
2022-12-09T22:50:34.415Z,11.93
2022-12-09T22:52:36.986Z,13.13
2022-12-09T22:54:38.679Z,13.87
2022-12-09T22:56:45.230Z,12.37
2022-12-09T22:58:47.236Z,13.17
2022-12-09T23:00:49.009Z,13.53
2022-12-09T23:02:50.895Z,12.53
2022-12-09T23:04:52.694Z,12.87
2022-12-09T23:06:54.389Z,12.47
2022-12-09T23:08:56.371Z,12.60
2022-12-09T23:11:15.835Z,13.03
2022-12-09T23:13:22.807Z,12.80
2022-12-09T23:15:25.008Z,12.77
2022-12-09T23:17:27.712Z,13.03
2022-12-09T23:19:29.981Z,12.27
2022-12-09T23:21:36.227Z,13.07
2022-12-09T23:23:39.197Z,11.90
2022-12-09T23:25:41.617Z,11.97
2022-12-09T23:27:46.637Z,12.03
2022-12-09T23:29:48.272Z,12.97
2022-12-09T23:31:52.396Z,12.33
2022-12-09T23:33:54.915Z,13.90
2022-12-09T23:35:56.639Z,13.03
2022-12-09T23:37:58.699Z,13.67
2022-12-09T23:40:02.593Z,12.43
2022-12-09T23:42:04.251Z,12.47
2022-12-09T23:44:10.594Z,13.30
2022-12-09T23:46:15.984Z,13.50
2022-12-09T23:48:20.732Z,12.83
2022-12-09T23:50:27.647Z,12.57
2022-12-09T23:52:29.346Z,12.47
2022-12-09T23:54:33.401Z,13.33
2022-12-09T23:56:39.102Z,13.10
2022-12-09T23:58:41.924Z,14.70
